Weather at Thisted Airport

Public forecast

Using degrees Celsius for public forecast. Weather courtesy of forecast.io.

Closest aviation weather report (METAR) to Thisted Airport

Closest report is Aalborg Airport, 37.4 nm (69.2 km) E.

2024/07/19 18:20 (retrieved 29 minutes ago)

EKYT 191820Z AUTO 32003KT 9999 NCD 20/13 Q1019

Closest aviation forecast (TAF) to Thisted Airport

Closest forecast is Aalborg Airport, 37.4 nm (69.2 km) E.

2024/07/19 18:30 (retrieved 19 minutes ago)

TAF EKYT 191717Z 1918/2018 32006KT 9999 FEW200 PROB40 2002/2005 2500 BCFG BR BECMG 2007/2009 16010KT